Time;durP1;ratioP1;P1;durP2;ratioP2;P2;SDS_P1;SDS_P2;PMS_P1;PMS_P2;Temp;Humidity;BMP_temperature;BMP_pressure;BME280_temperature;BME280_humidity;BME280_pressure;Samples;Min_cycle;Max_cycle;Signal;HPM_P1;HPM_P2
2022/02/19 00:00:59;;;;;;;3.55;0.40;;;13.10;50.00;;;;;;5074006;28;20376;-72
2022/02/19 00:03:24;;;;;;;1.90;0.57;;;13.00;49.70;;;;;;5073884;28;20032;-73
2022/02/19 00:05:50;;;;;;;0.93;0.30;;;12.90;50.10;;;;;;5073735;28;20415;-72
2022/02/19 00:08:16;;;;;;;1.50;0.50;;;12.90;50.40;;;;;;5072597;28;20533;-71
2022/02/19 00:10:43;;;;;;;1.85;0.47;;;12.80;49.80;;;;;;5072332;28;20055;-72
2022/02/19 00:13:09;;;;;;;5.60;0.50;;;12.80;50.20;;;;;;5073570;28;20025;-72
2022/02/19 00:15:35;;;;;;;2.17;0.55;;;12.70;49.40;;;;;;5073600;28;20048;-72
2022/02/19 00:18:01;;;;;;;3.58;0.60;;;12.70;48.60;;;;;;5072403;28;20468;-72
2022/02/19 00:20:27;;;;;;;1.15;0.50;;;12.60;49.00;;;;;;5072483;28;20028;-71
2022/02/19 00:22:54;;;;;;;1.67;0.55;;;12.60;48.80;;;;;;5072514;28;20097;-72
2022/02/19 00:25:20;;;;;;;2.22;0.47;;;12.50;47.80;;;;;;5073654;28;20082;-72
2022/02/19 00:27:46;;;;;;;1.98;0.35;;;12.50;48.00;;;;;;5072226;28;20044;-72
2022/02/19 00:30:12;;;;;;;3.05;0.65;;;12.50;47.10;;;;;;5073547;28;20368;-72
2022/02/19 00:32:38;;;;;;;2.38;0.47;;;12.50;46.70;;;;;;5072368;28;20032;-72
2022/02/19 00:35:04;;;;;;;1.08;0.28;;;12.50;46.50;;;;;;5086721;28;20048;-71
2022/02/19 00:37:30;;;;;;;2.08;0.40;;;12.50;45.10;;;;;;5075517;28;20104;-72
2022/02/19 00:39:56;;;;;;;1.15;0.30;;;12.50;45.70;;;;;;5075592;28;20024;-72
2022/02/19 00:42:22;;;;;;;3.80;0.52;;;12.60;45.00;;;;;;5075463;28;20031;-72
2022/02/19 00:44:48;;;;;;;1.85;0.40;;;12.60;44.40;;;;;;5075450;28;20031;-71
2022/02/19 00:47:14;;;;;;;1.52;0.73;;;12.60;44.30;;;;;;5075417;28;20028;-72
2022/02/19 00:49:41;;;;;;;0.38;0.20;;;12.60;44.20;;;;;;5075437;28;20035;-72
2022/02/19 00:52:07;;;;;;;1.15;0.38;;;12.60;44.60;;;;;;5075392;28;20081;-72
2022/02/19 00:54:33;;;;;;;1.00;0.20;;;12.60;44.60;;;;;;5075404;28;20028;-71
2022/02/19 00:56:59;;;;;;;1.35;0.50;;;12.60;44.90;;;;;;5093155;28;20360;-71
2022/02/19 00:59:24;;;;;;;2.05;0.45;;;12.60;45.30;;;;;;5075338;28;20050;-72
2022/02/19 01:01:50;;;;;;;1.50;0.70;;;12.60;45.50;;;;;;5093307;28;20032;-69
2022/02/19 01:04:16;;;;;;;2.83;0.68;;;12.60;45.90;;;;;;5093378;28;20110;-71
2022/02/19 01:06:44;;;;;;;4.53;0.60;;;12.60;46.20;;;;;;5093344;28;20032;-72
2022/02/19 01:09:10;;;;;;;1.85;0.57;;;12.50;46.60;;;;;;5075186;28;20028;-71
2022/02/19 01:11:39;;;;;;;2.78;0.65;;;12.50;47.00;;;;;;5075263;28;20396;-71
2022/02/19 01:14:08;;;;;;;1.65;0.60;;;12.50;47.30;;;;;;5074915;28;20077;-72
2022/02/19 01:16:35;;;;;;;2.25;0.90;;;12.40;47.40;;;;;;5093215;28;20107;-71
2022/02/19 01:19:00;;;;;;;2.55;0.47;;;12.40;47.70;;;;;;5075180;28;20024;-71
2022/02/19 01:21:26;;;;;;;2.15;0.80;;;12.40;47.40;;;;;;5075104;28;20115;-72
2022/02/19 01:23:52;;;;;;;7.18;0.63;;;12.40;47.50;;;;;;5094700;28;20052;-72
2022/02/19 01:26:18;;;;;;;3.72;0.70;;;12.40;47.80;;;;;;5097255;28;20424;-72
2022/02/19 01:28:44;;;;;;;1.55;0.45;;;12.40;47.30;;;;;;5079077;28;20034;-72
2022/02/19 01:31:10;;;;;;;2.05;0.60;;;12.40;47.20;;;;;;5078766;28;20028;-71
2022/02/19 01:33:36;;;;;;;1.63;0.60;;;12.40;46.70;;;;;;5078792;28;20028;-73
2022/02/19 01:36:02;;;;;;;1.40;0.65;;;12.40;46.60;;;;;;5078966;28;20028;-72
2022/02/19 01:38:29;;;;;;;6.00;0.60;;;12.40;46.80;;;;;;5097002;28;20111;-71
2022/02/19 01:40:57;;;;;;;3.30;0.57;;;12.50;46.50;;;;;;5078849;28;20456;-70
2022/02/19 01:43:23;;;;;;;2.70;0.60;;;12.40;46.40;;;;;;5078843;28;20032;-69
2022/02/19 01:45:49;;;;;;;1.95;0.40;;;12.40;46.10;;;;;;5096834;28;20021;-71
2022/02/19 01:48:16;;;;;;;2.72;0.75;;;12.40;46.20;;;;;;5078657;28;20123;-71
2022/02/19 01:50:42;;;;;;;1.90;0.43;;;12.40;45.80;;;;;;5097051;28;20067;-72
2022/02/19 01:53:08;;;;;;;3.03;0.65;;;12.40;45.00;;;;;;5078343;28;20020;-70
2022/02/19 01:55:34;;;;;;;3.05;0.65;;;12.40;45.30;;;;;;5078552;28;20035;-70
2022/02/19 01:58:02;;;;;;;2.22;0.57;;;12.40;45.50;;;;;;5096634;28;20051;-69
2022/02/19 02:00:28;;;;;;;6.03;0.68;;;12.40;45.30;;;;;;5096258;28;20028;-70
2022/02/19 02:02:56;;;;;;;2.15;0.60;;;12.40;45.70;;;;;;5096445;28;20484;-72
2022/02/19 02:05:22;;;;;;;2.17;0.50;;;12.40;44.70;;;;;;5096531;28;20162;-71
2022/02/19 02:07:48;;;;;;;2.53;0.55;;;12.50;45.30;;;;;;5078154;28;20028;-71
2022/02/19 02:10:15;;;;;;;1.95;0.50;;;12.50;44.50;;;;;;5078162;28;20070;-69
2022/02/19 02:12:41;;;;;;;1.67;0.50;;;12.40;43.40;;;;;;5078138;28;20115;-69
2022/02/19 02:15:26;;;;;;;1.98;0.57;;;12.40;43.30;;;;;;5096272;28;20485;-70
2022/02/19 02:17:52;;;;;;;0.85;0.40;;;12.40;43.60;;;;;;5096202;28;20024;-70
2022/02/19 02:20:18;;;;;;;2.53;0.60;;;12.40;43.00;;;;;;5095847;28;20531;-71
2022/02/19 02:22:44;;;;;;;3.00;0.65;;;12.40;42.90;;;;;;5077906;28;20115;-72
2022/02/19 02:25:12;;;;;;;2.15;0.50;;;12.40;43.00;;;;;;5077914;28;20032;-71
2022/02/19 02:27:38;;;;;;;2.78;0.47;;;12.30;43.10;;;;;;5077947;28;20449;-71
2022/02/19 02:30:05;;;;;;;3.60;0.60;;;12.30;42.90;;;;;;5095901;28;20032;-71
2022/02/19 02:32:31;;;;;;;2.00;0.50;;;12.30;43.00;;;;;;5096003;28;20028;-71
2022/02/19 02:34:56;;;;;;;3.28;1.00;;;12.30;43.00;;;;;;5094947;28;20048;-71
2022/02/19 02:37:26;;;;;;;2.20;0.60;;;12.30;43.10;;;;;;5077713;28;20459;-71
2022/02/19 02:39:52;;;;;;;1.95;0.77;;;12.30;43.20;;;;;;5095919;28;20035;-71
2022/02/19 02:42:20;;;;;;;2.53;0.52;;;12.30;43.10;;;;;;5095737;28;20020;-70
2022/02/19 02:44:46;;;;;;;2.72;0.57;;;12.30;43.10;;;;;;5096045;28;20501;-69
2022/02/19 02:47:13;;;;;;;1.58;0.30;;;12.20;43.00;;;;;;5077603;28;20028;-69
2022/02/19 02:49:38;;;;;;;2.50;0.60;;;12.20;43.20;;;;;;5076611;28;20028;-70
2022/02/19 02:52:05;;;;;;;2.78;0.60;;;12.20;43.40;;;;;;5074948;28;20036;-69
2022/02/19 02:54:31;;;;;;;0.50;0.38;;;12.20;43.60;;;;;;5074979;28;20047;-71
2022/02/19 02:56:57;;;;;;;1.73;0.50;;;12.20;44.10;;;;;;5057252;28;20123;-71
2022/02/19 02:59:23;;;;;;;2.45;0.50;;;12.20;44.50;;;;;;5088590;28;20593;-70
2022/02/19 03:01:48;;;;;;;1.30;0.30;;;12.20;45.00;;;;;;5074337;28;20460;-71
2022/02/19 03:04:14;;;;;;;1.73;0.63;;;12.20;45.50;;;;;;5087011;28;20048;-70
2022/02/19 03:06:40;;;;;;;2.03;0.50;;;12.10;45.90;;;;;;5066317;28;20109;-70
2022/02/19 03:09:06;;;;;;;2.85;0.77;;;12.10;46.30;;;;;;5095312;28;20020;-70
2022/02/19 03:11:31;;;;;;;1.15;0.60;;;12.00;46.70;;;;;;5075567;28;20407;-70
2022/02/19 03:13:57;;;;;;;2.60;0.60;;;12.00;47.10;;;;;;5088307;28;20028;-70
2022/02/19 03:16:23;;;;;;;1.60;0.70;;;12.00;47.50;;;;;;5074704;28;20099;-70
2022/02/19 03:18:49;;;;;;;1.98;0.43;;;11.90;47.80;;;;;;5056702;28;20539;-70
2022/02/19 03:21:14;;;;;;;2.35;0.50;;;11.90;48.20;;;;;;5075006;28;20044;-70
2022/02/19 03:23:40;;;;;;;2.10;0.40;;;11.80;48.50;;;;;;5075132;28;20020;-70
2022/02/19 03:26:07;;;;;;;3.35;0.30;;;11.70;48.80;;;;;;5080914;28;20367;-70
2022/02/19 03:28:34;;;;;;;3.05;0.75;;;11.70;49.00;;;;;;5094545;28;20471;-72
2022/02/19 03:31:00;;;;;;;1.50;0.60;;;11.70;49.30;;;;;;5094476;28;20069;-70
2022/02/19 03:33:26;;;;;;;1.40;0.45;;;11.70;49.40;;;;;;5080868;28;20021;-71
2022/02/19 03:35:54;;;;;;;4.18;0.60;;;11.60;49.50;;;;;;5090280;28;20047;-70
2022/02/19 03:38:21;;;;;;;3.97;0.52;;;11.60;49.70;;;;;;5069415;28;20032;-74
2022/02/19 03:40:47;;;;;;;1.42;0.45;;;11.60;50.40;;;;;;5074186;28;20033;-71
2022/02/19 03:43:13;;;;;;;3.88;0.60;;;11.50;49.90;;;;;;5074132;28;20616;-70
2022/02/19 03:45:41;;;;;;;1.50;0.60;;;11.50;50.10;;;;;;5063267;28;20032;-70
2022/02/19 03:48:07;;;;;;;2.78;0.75;;;11.50;50.20;;;;;;5075767;28;20058;-70
2022/02/19 03:50:33;;;;;;;1.25;0.55;;;11.50;50.30;;;;;;5073285;28;20029;-70
2022/02/19 03:52:59;;;;;;;0.65;0.40;;;11.50;50.40;;;;;;5073599;28;20035;-70
2022/02/19 03:55:25;;;;;;;3.83;0.40;;;11.50;50.40;;;;;;5073715;28;20033;-70
2022/02/19 03:57:51;;;;;;;0.85;0.45;;;11.50;50.60;;;;;;5073239;28;20025;-74
2022/02/19 04:00:17;;;;;;;0.93;0.45;;;11.50;50.80;;;;;;5067312;28;20128;-72
2022/02/19 04:02:43;;;;;;;1.65;0.63;;;11.50;50.80;;;;;;5074110;28;20051;-72
2022/02/19 04:05:13;;;;;;;1.02;0.40;;;11.40;50.80;;;;;;5075715;28;20456;-72
2022/02/19 04:07:40;;;;;;;1.73;0.50;;;11.40;50.90;;;;;;5093660;28;20028;-72
2022/02/19 04:10:07;;;;;;;1.85;0.73;;;11.40;50.90;;;;;;5075728;28;20024;-72
2022/02/19 04:12:33;;;;;;;1.25;0.43;;;11.40;51.00;;;;;;5093615;28;20081;-72
2022/02/19 04:14:59;;;;;;;1.40;0.60;;;11.30;50.90;;;;;;5092834;28;20076;-72
2022/02/19 04:17:25;;;;;;;4.07;0.60;;;11.30;51.00;;;;;;5074721;28;20036;-72
2022/02/19 04:19:53;;;;;;;1.05;0.35;;;11.30;51.00;;;;;;5075484;28;20035;-73
2022/02/19 04:22:23;;;;;;;3.63;0.85;;;11.30;50.90;;;;;;5071853;28;20048;-72
2022/02/19 04:24:49;;;;;;;1.67;0.65;;;11.20;50.90;;;;;;5072028;28;20028;-72
2022/02/19 04:27:17;;;;;;;2.75;0.50;;;11.20;50.90;;;;;;5074535;28;20484;-72
2022/02/19 04:29:43;;;;;;;2.08;0.43;;;11.20;51.00;;;;;;5093789;28;20016;-72
2022/02/19 04:32:09;;;;;;;2.05;0.40;;;11.20;50.90;;;;;;5075305;28;20024;-73
2022/02/19 04:34:36;;;;;;;1.33;0.70;;;11.20;50.80;;;;;;5084327;28;20057;-72
2022/02/19 04:37:02;;;;;;;2.88;0.57;;;11.20;51.40;;;;;;5055084;28;20032;-72
2022/02/19 04:39:28;;;;;;;0.90;0.60;;;11.20;50.60;;;;;;5073371;28;20025;-73
2022/02/19 04:41:54;;;;;;;1.33;0.40;;;11.20;50.60;;;;;;5071056;28;20454;-72
2022/02/19 04:44:19;;;;;;;6.78;0.50;;;11.20;50.30;;;;;;5061538;28;20028;-72
2022/02/19 04:46:45;;;;;;;1.48;0.55;;;11.20;50.40;;;;;;5059055;28;20028;-72
2022/02/19 04:49:11;;;;;;;3.33;0.70;;;11.20;50.30;;;;;;5054858;28;20422;-74
2022/02/19 04:51:38;;;;;;;1.73;0.40;;;11.20;49.90;;;;;;5053686;28;20028;-72
2022/02/19 04:54:04;;;;;;;2.78;0.63;;;11.20;49.80;;;;;;5040076;28;20033;-71
2022/02/19 04:56:32;;;;;;;5.78;0.82;;;11.20;49.60;;;;;;5035175;28;20029;-72
2022/02/19 04:59:01;;;;;;;2.92;1.00;;;11.20;49.50;;;;;;5052782;28;20047;-74
2022/02/19 05:01:27;;;;;;;3.08;1.35;;;11.20;49.40;;;;;;5053001;28;20104;-72
2022/02/19 05:03:56;;;;;;;0.63;0.30;;;11.20;49.30;;;;;;5045484;28;20108;-72
2022/02/19 05:06:22;;;;;;;1.92;0.80;;;11.20;49.30;;;;;;5060211;28;20103;-72
2022/02/19 05:08:49;;;;;;;2.55;0.80;;;11.30;49.10;;;;;;5034854;28;20029;-71
2022/02/19 05:11:16;;;;;;;3.33;0.70;;;11.30;49.00;;;;;;5053373;28;20040;-72
2022/02/19 05:13:41;;;;;;;5.40;0.63;;;11.30;49.00;;;;;;5053065;28;20458;-71
2022/02/19 05:16:07;;;;;;;2.92;0.60;;;11.30;48.70;;;;;;5052682;28;20025;-72
2022/02/19 05:18:33;;;;;;;1.83;0.57;;;11.30;48.60;;;;;;5034952;28;20044;-71
2022/02/19 05:20:59;;;;;;;5.22;0.43;;;11.30;48.50;;;;;;5034975;28;20453;-72
2022/02/19 05:23:24;;;;;;;2.13;0.80;;;11.30;48.30;;;;;;5052960;28;20036;-72
2022/02/19 05:25:50;;;;;;;1.17;0.60;;;11.30;48.30;;;;;;5052796;28;20036;-72
2022/02/19 05:28:16;;;;;;;1.02;0.45;;;11.30;48.10;;;;;;5034158;28;20029;-72
2022/02/19 05:30:42;;;;;;;3.65;0.80;;;11.30;48.30;;;;;;5052189;28;20036;-72
2022/02/19 05:33:08;;;;;;;2.25;0.60;;;11.30;48.10;;;;;;5051741;28;20159;-72
2022/02/19 05:35:33;;;;;;;1.88;0.57;;;11.30;47.80;;;;;;5069345;28;20049;-72
2022/02/19 05:37:59;;;;;;;1.95;0.70;;;11.30;47.70;;;;;;5072555;28;20028;-72
2022/02/19 05:40:25;;;;;;;2.75;0.70;;;11.30;47.60;;;;;;5054796;28;20071;-72
2022/02/19 05:42:51;;;;;;;3.75;0.85;;;11.30;47.50;;;;;;5071670;28;20031;-72
2022/02/19 05:45:17;;;;;;;3.22;0.90;;;11.30;47.60;;;;;;5072518;28;20028;-72
2022/02/19 05:47:43;;;;;;;3.85;0.98;;;11.40;47.40;;;;;;5072807;28;20039;-72
2022/02/19 05:50:09;;;;;;;4.13;1.20;;;11.40;47.20;;;;;;5054788;28;20044;-72
2022/02/19 05:52:35;;;;;;;3.22;0.70;;;11.40;47.10;;;;;;5072427;28;20063;-72
2022/02/19 05:55:01;;;;;;;3.30;1.00;;;11.40;47.10;;;;;;5072595;28;20021;-72
2022/02/19 05:57:26;;;;;;;3.38;0.82;;;11.40;47.10;;;;;;5073602;28;20525;-73
2022/02/19 05:59:52;;;;;;;2.80;0.95;;;11.50;47.00;;;;;;5072570;28;20033;-72
2022/02/19 06:02:18;;;;;;;8.43;0.70;;;11.50;46.80;;;;;;5072585;28;20440;-72
2022/02/19 06:04:44;;;;;;;3.03;0.90;;;11.50;46.70;;;;;;5054602;28;20078;-73
2022/02/19 06:07:10;;;;;;;1.70;0.57;;;11.50;46.70;;;;;;5072295;28;20310;-73
2022/02/19 06:09:36;;;;;;;5.07;0.80;;;11.50;46.50;;;;;;5073103;28;20078;-72
2022/02/19 06:12:02;;;;;;;2.58;0.65;;;11.50;46.40;;;;;;5058164;28;20495;-72
2022/02/19 06:14:28;;;;;;;3.92;0.80;;;11.50;46.30;;;;;;5076121;28;20074;-72
2022/02/19 06:16:54;;;;;;;2.97;0.80;;;11.50;46.10;;;;;;5076028;28;20115;-72
2022/02/19 06:19:20;;;;;;;3.42;0.90;;;11.60;46.40;;;;;;5058053;28;20598;-72
2022/02/19 06:21:46;;;;;;;6.80;1.20;;;11.50;46.10;;;;;;5074494;28;20096;-73
2022/02/19 06:24:12;;;;;;;5.53;1.15;;;11.60;46.10;;;;;;5075645;28;20039;-72
2022/02/19 06:26:38;;;;;;;9.73;1.15;;;11.60;45.80;;;;;;5075781;28;20021;-70
2022/02/19 06:29:03;;;;;;;4.15;0.77;;;11.60;45.70;;;;;;5075824;28;20376;-72
2022/02/19 06:31:29;;;;;;;5.60;1.10;;;11.60;45.50;;;;;;5057781;28;20031;-72
2022/02/19 06:33:55;;;;;;;7.30;0.88;;;11.50;45.50;;;;;;5072463;28;20049;-72
2022/02/19 06:36:21;;;;;;;4.65;0.80;;;11.50;44.90;;;;;;5054468;28;20032;-74
2022/02/19 06:38:48;;;;;;;6.95;0.75;;;11.50;45.10;;;;;;5037375;28;20127;-72
2022/02/19 06:41:13;;;;;;;2.67;0.80;;;11.50;45.00;;;;;;5037886;28;20487;-72
2022/02/19 06:43:39;;;;;;;3.00;0.63;;;11.40;44.70;;;;;;5037691;28;20024;-72
2022/02/19 06:46:05;;;;;;;8.13;1.65;;;11.40;45.00;;;;;;5037800;28;20468;-72
2022/02/19 06:48:32;;;;;;;2.58;0.80;;;11.50;45.30;;;;;;5037512;28;20044;-72
2022/02/19 06:50:58;;;;;;;4.25;0.90;;;11.40;45.20;;;;;;5037468;28;20021;-72
2022/02/19 06:53:25;;;;;;;4.93;1.02;;;11.40;45.30;;;;;;5055605;28;20029;-72
2022/02/19 06:55:51;;;;;;;3.38;0.70;;;11.40;45.20;;;;;;5037672;28;20089;-72
2022/02/19 06:58:16;;;;;;;3.30;1.05;;;11.40;45.20;;;;;;5055126;28;20134;-72
2022/02/19 07:00:42;;;;;;;3.30;0.75;;;11.50;45.50;;;;;;5037459;28;20029;-72
2022/02/19 07:03:08;;;;;;;3.25;0.80;;;11.40;45.10;;;;;;5055192;28;20025;-72
2022/02/19 07:05:34;;;;;;;1.48;0.52;;;11.50;45.40;;;;;;5055112;28;20032;-72
2022/02/19 07:08:00;;;;;;;4.88;0.77;;;11.50;45.30;;;;;;5037266;28;20491;-72
2022/02/19 07:10:27;;;;;;;4.63;0.90;;;11.50;45.40;;;;;;5054900;28;20029;-72
2022/02/19 07:12:54;;;;;;;5.57;1.02;;;11.50;45.10;;;;;;5037044;28;20067;-72
2022/02/19 07:15:20;;;;;;;4.15;1.17;;;11.50;45.00;;;;;;5054592;28;20017;-72
2022/02/19 07:17:48;;;;;;;3.67;0.77;;;11.60;45.30;;;;;;5037163;28;20041;-72
2022/02/19 07:20:14;;;;;;;10.07;0.90;;;11.60;45.30;;;;;;5065560;28;20375;-73
2022/02/19 07:22:40;;;;;;;4.90;1.20;;;11.60;45.30;;;;;;5056882;28;20024;-72
2022/02/19 07:25:06;;;;;;;3.38;0.80;;;11.60;45.40;;;;;;5074766;28;20027;-73
2022/02/19 07:27:39;;;;;;;4.13;0.85;;;11.60;45.50;;;;;;5069476;28;20041;-72
2022/02/19 07:30:11;;;;;;;3.25;0.80;;;11.60;45.50;;;;;;5051673;28;20044;-70
2022/02/19 07:32:38;;;;;;;2.70;0.85;;;11.60;45.70;;;;;;5074370;28;20056;-73
2022/02/19 07:35:08;;;;;;;3.00;0.98;;;11.70;46.00;;;;;;5068823;28;20051;-72
2022/02/19 07:37:35;;;;;;;4.60;0.93;;;11.70;46.10;;;;;;5076532;28;20494;-73
2022/02/19 07:40:02;;;;;;;5.55;1.52;;;11.70;46.30;;;;;;5093692;28;20059;-72
2022/02/19 07:42:28;;;;;;;5.35;1.15;;;11.70;46.50;;;;;;5094669;28;20070;-72
2022/02/19 07:44:55;;;;;;;8.50;1.38;;;11.80;46.50;;;;;;5094608;28;20379;-72
2022/02/19 07:47:27;;;;;;;2.25;0.70;;;11.90;46.50;;;;;;5094236;28;20115;-73
2022/02/19 07:58:23;;;;;;;3.15;0.90;;;12.30;46.60;;;;;;5073978;28;20048;-71
2022/02/19 08:00:54;;;;;;;5.05;1.35;;;12.50;46.30;;;;;;5077070;28;20035;-70
2022/02/19 08:03:22;;;;;;;2.60;0.73;;;12.60;46.10;;;;;;5093953;28;20452;-70
2022/02/19 08:05:49;;;;;;;3.85;0.75;;;12.70;45.80;;;;;;5093732;28;20031;-71
2022/02/19 08:08:15;;;;;;;3.00;0.70;;;12.80;46.10;;;;;;5075669;28;20040;-71
2022/02/19 08:10:43;;;;;;;4.90;1.13;;;13.00;45.80;;;;;;5070740;28;20025;-70
2022/02/19 08:13:09;;;;;;;10.07;1.13;;;13.10;45.00;;;;;;5055910;28;20059;-70
2022/02/19 08:15:35;;;;;;;3.38;0.82;;;13.10;45.10;;;;;;5073776;28;20063;-71
2022/02/19 08:18:06;;;;;;;4.93;1.27;;;13.10;44.00;;;;;;5073413;28;20147;-70
2022/02/19 08:20:35;;;;;;;5.22;1.40;;;13.10;44.00;;;;;;5072411;28;20035;-70
2022/02/19 08:23:02;;;;;;;4.13;1.00;;;13.20;43.90;;;;;;5060906;28;20047;-71
2022/02/19 08:25:28;;;;;;;3.03;1.10;;;13.10;43.50;;;;;;5075538;28;20063;-70
2022/02/19 08:27:54;;;;;;;7.22;1.20;;;13.10;43.40;;;;;;5093504;28;20493;-70
2022/02/19 08:30:21;;;;;;;3.88;1.00;;;13.10;43.50;;;;;;5093602;28;20043;-70
2022/02/19 08:32:47;;;;;;;6.03;1.15;;;13.10;43.80;;;;;;5093014;28;20031;-71
2022/02/19 08:35:14;;;;;;;7.57;1.20;;;13.10;43.30;;;;;;5072680;28;20128;-71
2022/02/19 08:37:39;;;;;;;2.58;1.00;;;13.00;43.20;;;;;;5053403;28;20028;-70
2022/02/19 08:40:09;;;;;;;4.85;1.05;;;13.00;43.40;;;;;;5053469;28;20033;-70
2022/02/19 08:42:36;;;;;;;8.43;1.33;;;12.90;43.10;;;;;;5019139;28;20576;-72
2022/02/19 08:45:02;;;;;;;6.15;1.63;;;12.90;43.50;;;;;;5053197;28;20060;-73
2022/02/19 08:47:28;;;;;;;5.30;1.17;;;12.90;43.60;;;;;;5035618;28;20028;-70
2022/02/19 08:49:54;;;;;;;7.80;1.30;;;12.90;43.90;;;;;;5035400;28;20528;-70
2022/02/19 08:52:20;;;;;;;5.38;1.42;;;12.90;43.70;;;;;;5054245;28;20500;-70
2022/02/19 08:54:46;;;;;;;5.28;1.58;;;12.90;43.40;;;;;;5073265;28;20029;-71
2022/02/19 08:57:11;;;;;;;7.68;1.25;;;12.90;43.40;;;;;;5072289;28;20116;-71
2022/02/19 08:59:37;;;;;;;5.35;1.00;;;13.00;43.30;;;;;;5072829;28;20037;-70
2022/02/19 09:02:03;;;;;;;20.23;1.33;;;13.00;43.20;;;;;;5073174;28;20043;-71
2022/02/19 09:04:29;;;;;;;5.28;1.70;;;13.10;43.10;;;;;;5073127;28;20021;-71
2022/02/19 09:06:55;;;;;;;5.70;1.27;;;13.20;43.10;;;;;;5055092;28;20070;-71
2022/02/19 09:09:20;;;;;;;8.57;1.30;;;13.30;42.60;;;;;;5066537;28;20029;-71
2022/02/19 09:11:46;;;;;;;2.80;1.10;;;13.40;41.90;;;;;;5053356;28;20029;-71
2022/02/19 09:14:12;;;;;;;4.97;1.20;;;13.50;42.00;;;;;;5053425;28;20499;-71
2022/02/19 09:16:38;;;;;;;6.18;1.60;;;13.60;41.50;;;;;;5053092;28;20115;-70
2022/02/19 09:19:05;;;;;;;9.50;2.15;;;13.60;41.10;;;;;;5052966;28;20607;-70
2022/02/19 09:21:32;;;;;;;4.45;1.23;;;13.60;40.40;;;;;;5040489;28;20024;-71
2022/02/19 09:23:58;;;;;;;3.83;1.33;;;13.60;40.00;;;;;;5070578;28;20021;-73
2022/02/19 09:26:24;;;;;;;3.42;1.15;;;13.70;40.40;;;;;;5071647;28;20491;-71
2022/02/19 09:28:50;;;;;;;3.15;0.90;;;13.70;40.80;;;;;;5069155;28;20025;-72
2022/02/19 09:31:18;;;;;;;3.78;1.02;;;13.80;39.90;;;;;;5061436;28;20116;-71
2022/02/19 09:33:44;;;;;;;7.88;1.50;;;13.80;39.30;;;;;;5051229;28;20036;-70
2022/02/19 09:36:11;;;;;;;4.78;1.50;;;13.80;38.00;;;;;;5063523;28;20025;-71
2022/02/19 09:38:38;;;;;;;6.60;1.15;;;13.70;38.10;;;;;;5059727;28;20036;-71
2022/02/19 09:41:07;;;;;;;9.60;1.60;;;13.70;38.50;;;;;;5060687;28;20032;-71
2022/02/19 09:43:34;;;;;;;11.98;2.17;;;13.70;38.80;;;;;;5056488;28;20348;-71
2022/02/19 09:46:03;;;;;;;5.22;1.60;;;13.70;38.60;;;;;;5038093;28;20036;-71
2022/02/19 09:48:30;;;;;;;7.50;1.35;;;13.60;38.60;;;;;;5063145;28;20025;-71
2022/02/19 09:50:59;;;;;;;7.72;1.42;;;13.60;38.70;;;;;;5057046;28;20064;-71
2022/02/19 09:53:26;;;;;;;6.88;1.45;;;13.60;37.40;;;;;;5056309;28;20036;-71
2022/02/19 09:55:52;;;;;;;3.75;1.10;;;13.60;37.30;;;;;;5056614;28;20033;-72
2022/02/19 09:58:18;;;;;;;4.50;1.20;;;13.60;37.70;;;;;;5056368;28;20441;-71
2022/02/19 10:00:46;;;;;;;4.75;1.17;;;13.60;37.00;;;;;;5056340;28;20036;-72
2022/02/19 10:03:32;;;;;;;5.50;1.30;;;13.60;37.30;;;;;;5056059;28;20025;-71
2022/02/19 10:06:11;;;;;;;6.10;1.55;;;13.60;37.90;;;;;;5056377;28;20024;-71
2022/02/19 10:08:37;;;;;;;8.20;1.25;;;13.70;37.50;;;;;;5038479;28;20021;-71
2022/02/19 10:11:04;;;;;;;3.15;1.00;;;13.70;37.30;;;;;;5056428;28;20052;-71
2022/02/19 10:13:35;;;;;;;6.88;1.25;;;13.70;36.10;;;;;;5038152;28;20032;-71
2022/02/19 10:16:05;;;;;;;13.52;1.65;;;13.70;35.60;;;;;;5056187;28;20371;-71
2022/02/19 10:18:43;;;;;;;4.78;1.10;;;13.70;35.40;;;;;;5055737;28;20024;-71
2022/02/19 10:21:20;;;;;;;5.80;1.02;;;13.70;36.40;;;;;;5038110;28;20454;-71
2022/02/19 10:23:56;;;;;;;4.35;1.02;;;13.70;35.90;;;;;;5054578;28;20047;-71
2022/02/19 10:26:25;;;;;;;7.78;1.15;;;13.70;35.00;;;;;;5058180;28;20121;-71
2022/02/19 10:29:05;;;;;;;5.95;1.15;;;13.70;34.80;;;;;;5057950;28;20021;-71
2022/02/19 10:31:33;;;;;;;6.18;1.15;;;13.70;34.70;;;;;;5057831;28;20356;-71
2022/02/19 10:34:13;;;;;;;4.80;1.27;;;13.80;35.00;;;;;;5057430;28;20048;-72
2022/02/19 10:36:46;;;;;;;4.70;0.95;;;13.80;35.40;;;;;;5056335;28;20021;-71
2022/02/19 10:39:13;;;;;;;4.05;0.93;;;13.80;35.30;;;;;;5049339;28;20033;-71
2022/02/19 10:41:40;;;;;;;4.25;1.10;;;13.80;34.40;;;;;;5075723;28;20245;-71
2022/02/19 10:44:27;;;;;;;7.18;1.58;;;13.70;34.40;;;;;;5057326;28;20028;-71
2022/02/19 10:47:16;;;;;;;5.57;1.20;;;13.70;35.10;;;;;;5074012;28;20016;-71
2022/02/19 10:50:13;;;;;;;6.25;1.25;;;13.80;35.40;;;;;;5055568;28;20055;-72
2022/02/19 10:52:43;;;;;;;5.47;1.50;;;13.90;35.70;;;;;;5055426;28;20078;-71
2022/02/19 10:55:13;;;;;;;5.07;0.70;;;13.90;34.80;;;;;;5037249;28;20032;-72
2022/02/19 10:57:43;;;;;;;6.30;0.80;;;13.90;35.10;;;;;;5055350;28;20025;-74
2022/02/19 11:00:18;;;;;;;4.72;1.33;;;14.00;35.10;;;;;;5061071;28;20028;-72
2022/02/19 11:02:48;;;;;;;3.88;1.00;;;14.00;34.80;;;;;;5069802;28;20029;-74
2022/02/19 11:05:18;;;;;;;6.35;1.02;;;14.10;34.90;;;;;;5074482;28;20088;-73
2022/02/19 11:07:45;;;;;;;4.07;1.10;;;14.20;34.60;;;;;;5054702;28;20484;-71
2022/02/19 11:10:17;;;;;;;4.28;1.38;;;14.20;34.80;;;;;;5074699;28;20579;-72
2022/02/19 11:12:44;;;;;;;3.10;1.10;;;14.20;32.90;;;;;;5057080;28;20025;-72
2022/02/19 11:15:10;;;;;;;4.95;1.13;;;14.10;32.90;;;;;;5057123;28;20028;-71
2022/02/19 11:17:37;;;;;;;3.92;0.88;;;14.10;33.00;;;;;;5056924;28;20113;-71
2022/02/19 11:20:05;;;;;;;5.40;1.33;;;14.10;32.40;;;;;;5057164;28;20101;-71
2022/02/19 11:22:34;;;;;;;5.55;1.02;;;14.00;32.10;;;;;;5074886;28;20124;-71
2022/02/19 11:25:03;;;;;;;4.35;1.00;;;14.00;32.30;;;;;;5056763;28;20040;-71
2022/02/19 11:27:32;;;;;;;4.82;1.10;;;14.00;31.20;;;;;;5056844;28;20388;-71
2022/02/19 11:30:02;;;;;;;2.63;0.73;;;14.10;31.10;;;;;;5056731;28;20074;-70
2022/02/19 11:32:29;;;;;;;5.55;1.20;;;14.10;31.00;;;;;;5074686;28;20048;-71
2022/02/19 11:34:54;;;;;;;5.82;1.42;;;14.20;30.80;;;;;;5074604;28;20356;-70
2022/02/19 11:37:22;;;;;;;4.50;1.33;;;14.20;30.30;;;;;;5056518;28;20077;-71
2022/02/19 11:40:03;;;;;;;4.53;1.02;;;14.20;30.60;;;;;;5056516;28;20054;-71
2022/02/19 11:42:39;;;;;;;11.68;1.35;;;14.30;31.00;;;;;;5056170;28;20029;-71
2022/02/19 11:45:26;;;;;;;7.15;1.25;;;14.40;31.20;;;;;;5074090;28;20074;-71
2022/02/19 11:48:07;;;;;;;3.88;1.00;;;14.40;31.30;;;;;;5057217;28;20052;-71
2022/02/19 11:50:36;;;;;;;9.27;1.50;;;14.50;31.00;;;;;;5036400;28;20031;-72
2022/02/19 11:53:14;;;;;;;2.28;0.77;;;14.50;30.50;;;;;;5051859;28;20151;-74
2022/02/19 11:55:41;;;;;;;2.58;0.75;;;14.50;30.30;;;;;;5074421;28;20099;-73
2022/02/19 11:58:13;;;;;;;10.32;1.35;;;14.50;29.80;;;;;;5064606;28;20028;-73
2022/02/19 12:00:42;;;;;;;3.53;1.00;;;14.40;29.60;;;;;;5069887;28;20039;-71
2022/02/19 12:03:28;;;;;;;4.80;1.10;;;14.30;29.40;;;;;;5058512;28;20021;-71
2022/02/19 12:06:07;;;;;;;4.95;1.30;;;14.20;29.70;;;;;;5073979;28;20028;-71
2022/02/19 12:08:53;;;;;;;3.97;0.90;;;14.20;29.80;;;;;;5055248;28;20086;-72
2022/02/19 12:11:23;;;;;;;4.55;1.20;;;14.20;30.10;;;;;;5073642;28;20399;-72
2022/02/19 12:13:55;;;;;;;4.47;1.05;;;14.20;29.20;;;;;;5073815;28;20024;-71
2022/02/19 12:16:34;;;;;;;3.08;0.85;;;14.20;28.90;;;;;;5055956;28;20039;-71
2022/02/19 12:19:13;;;;;;;6.30;1.52;;;14.10;29.00;;;;;;5055668;28;20035;-71
2022/02/19 12:21:46;;;;;;;3.95;1.00;;;14.10;29.30;;;;;;5055726;28;20075;-71
2022/02/19 12:24:12;;;;;;;3.42;0.95;;;14.10;29.20;;;;;;5073659;28;20031;-72
2022/02/19 12:27:05;;;;;;;5.43;0.90;;;14.10;29.20;;;;;;5055626;28;20029;-71
2022/02/19 12:29:35;;;;;;;7.68;1.02;;;14.10;29.70;;;;;;5073333;28;20150;-71
2022/02/19 12:32:07;;;;;;;9.13;1.35;;;14.20;30.00;;;;;;5073638;28;20036;-71
2022/02/19 12:34:52;;;;;;;4.70;1.50;;;14.20;29.80;;;;;;5055115;28;20055;-72
2022/02/19 12:37:18;;;;;;;3.17;0.85;;;14.30;29.80;;;;;;5073095;28;20064;-72
2022/02/19 12:39:46;;;;;;;8.45;0.98;;;14.30;29.60;;;;;;5073195;28;20512;-72
2022/02/19 12:42:25;;;;;;;3.65;1.05;;;14.40;29.80;;;;;;5073427;28;20389;-71
2022/02/19 12:45:04;;;;;;;2.95;0.77;;;14.40;29.80;;;;;;5051592;28;20024;-71
2022/02/19 12:47:32;;;;;;;4.70;1.00;;;14.50;30.20;;;;;;5053072;28;20079;-71
2022/02/19 12:49:58;;;;;;;4.05;1.30;;;14.50;30.10;;;;;;5035491;28;20021;-71
2022/02/19 12:52:24;;;;;;;2.83;0.98;;;14.50;29.90;;;;;;5053366;28;20107;-71
2022/02/19 12:54:50;;;;;;;6.10;1.42;;;14.60;29.70;;;;;;5035373;28;20029;-71
2022/02/19 12:57:19;;;;;;;9.75;1.38;;;14.60;29.10;;;;;;5052871;28;20036;-71